Upper Saint Regis, New York
Current Conditions -  °F | °C
As of 8:51 PM on Friday 24 Oct 2014 (Local Time) from KSLK Reporting Station
Broken Clouds Broken Clouds  
Wind Chill:   Ceiling: 8000
Heat Index:   Visibility: 7mi
Dew Point:   Wind: 3mph
Humidity: 97%   Direction: 250°WSW
Pressure: 29.84"   Gusts: NA
Location:  44.3663°N, 74.2493°W
Report Text: KSLK 250051Z AUTO 25003KT 7SM BKN080 04/04 A2984 RMK AO2 SLP116 T00440039
Loading
Personal Weather Stations






























Interactive Weather Map
Tropical Storm Tracking
New forecast layout! Learn more

10-Day Weather Forecast

Advertisements
Track Severe Weather on mobile